UAE29N OMDB-HECA
Flight info
| Callsign | UAE29N |
|---|---|
| Flight time | N/A |
| Altitude | 38000 |
| Route | SENPA N571 ALPOB L768 DUSBO/N0494F400 L768 VATIM L550 NOVPA N697 MENLI L677 CVO |
| Aircraft | A388/J-SADE2E3FGHIJ3J4J5M1RWXY/LB1D1 |
Departure
| Time | N/A |
|---|---|
| Airport | Dubai International Airport (OMDB) |
Arrival
| Time | 2026-05-03 23:21 |
|---|---|
| Airport | Cairo International Airport (HECA) |
| Time | Latitude | Longitude | Altitude | Speed | Heading |
|---|---|---|---|---|---|
| 2026-05-03 20:15 | 25.63385 | 53.31863 | 35927 ft | 446 kts | 283° |
| 2026-05-03 20:15 | 25.64166 | 53.28547 | 36374 ft | 445 kts | 283° |
| 2026-05-03 20:15 | 25.64950 | 53.25221 | 36836 ft | 445 kts | 283° |
| 2026-05-03 20:15 | 25.65729 | 53.21909 | 37278 ft | 445 kts | 283° |
| 2026-05-03 20:16 | 25.66497 | 53.18638 | 37690 ft | 445 kts | 283° |
| 2026-05-03 20:16 | 25.67280 | 53.15302 | 37813 ft | 449 kts | 283° |
| 2026-05-03 20:16 | 25.68056 | 53.11991 | 37811 ft | 446 kts | 283° |
| 2026-05-03 20:17 | 25.69628 | 53.05327 | 37811 ft | 448 kts | 284° |
| 2026-05-03 20:17 | 25.71811 | 52.98859 | 37809 ft | 450 kts | 292° |
| 2026-05-03 20:18 | 25.74689 | 52.92719 | 37813 ft | 451 kts | 295° |
| 2026-05-03 20:18 | 25.77567 | 52.86613 | 37811 ft | 451 kts | 295° |
| 2026-05-03 20:19 | 25.80437 | 52.80516 | 37808 ft | 450 kts | 295° |
| 2026-05-03 20:19 | 25.83337 | 52.74358 | 37804 ft | 450 kts | 295° |
| 2026-05-03 20:20 | 25.86211 | 52.68249 | 37807 ft | 450 kts | 295° |
| 2026-05-03 20:20 | 25.89071 | 52.62161 | 37814 ft | 450 kts | 295° |
| 2026-05-03 20:21 | 25.91903 | 52.55968 | 37816 ft | 449 kts | 293° |
| 2026-05-03 20:21 | 25.94623 | 52.49726 | 37816 ft | 449 kts | 293° |
| 2026-05-03 20:22 | 25.97362 | 52.43477 | 37813 ft | 449 kts | 293° |
| 2026-05-03 20:22 | 26.00093 | 52.37283 | 37818 ft | 449 kts | 294° |
| 2026-05-03 20:23 | 26.02879 | 52.31061 | 37819 ft | 449 kts | 294° |
| 2026-05-03 20:23 | 26.05659 | 52.24841 | 37821 ft | 449 kts | 294° |
| 2026-05-03 20:24 | 26.08432 | 52.18616 | 37822 ft | 449 kts | 293° |
| 2026-05-03 20:24 | 26.11179 | 52.12439 | 37824 ft | 448 kts | 293° |
| 2026-05-03 20:25 | 26.13934 | 52.06236 | 37819 ft | 448 kts | 293° |
| 2026-05-03 20:25 | 26.16677 | 52.00049 | 37823 ft | 448 kts | 293° |
| 2026-05-03 20:26 | 26.19479 | 51.93807 | 37815 ft | 448 kts | 294° |
| 2026-05-03 20:26 | 26.22243 | 51.87601 | 37814 ft | 447 kts | 293° |
| 2026-05-03 20:27 | 26.24959 | 51.81414 | 37820 ft | 447 kts | 293° |
| 2026-05-03 20:27 | 26.27684 | 51.75266 | 37822 ft | 448 kts | 293° |
| 2026-05-03 20:28 | 26.30457 | 51.69059 | 37820 ft | 448 kts | 293° |
| 2026-05-03 20:28 | 26.33231 | 51.62834 | 37826 ft | 448 kts | 293° |
| 2026-05-03 20:29 | 26.35978 | 51.56673 | 37826 ft | 448 kts | 293° |
| 2026-05-03 20:29 | 26.38536 | 51.50355 | 37827 ft | 446 kts | 287° |
| 2026-05-03 20:30 | 26.40551 | 51.43954 | 37826 ft | 445 kts | 287° |
| 2026-05-03 20:30 | 26.42626 | 51.37480 | 37828 ft | 445 kts | 287° |
| 2026-05-03 20:31 | 26.44711 | 51.30969 | 37829 ft | 445 kts | 287° |
| 2026-05-03 20:31 | 26.46787 | 51.24474 | 37830 ft | 445 kts | 287° |
| 2026-05-03 20:32 | 26.48867 | 51.17951 | 37830 ft | 445 kts | 287° |
| 2026-05-03 20:32 | 26.50941 | 51.11439 | 37837 ft | 445 kts | 287° |
| 2026-05-03 20:33 | 26.52991 | 51.04987 | 37834 ft | 445 kts | 287° |
| 2026-05-03 20:33 | 26.55058 | 50.98468 | 37832 ft | 444 kts | 287° |
| 2026-05-03 20:34 | 26.57117 | 50.91968 | 37834 ft | 444 kts | 287° |
| 2026-05-03 20:34 | 26.59152 | 50.85453 | 37837 ft | 444 kts | 286° |
| 2026-05-03 20:35 | 26.61149 | 50.78988 | 37838 ft | 443 kts | 286° |
| 2026-05-03 20:35 | 26.63163 | 50.72473 | 37834 ft | 443 kts | 286° |
| 2026-05-03 20:36 | 26.65163 | 50.65954 | 37834 ft | 443 kts | 285° |
| 2026-05-03 20:36 | 26.67092 | 50.59415 | 37840 ft | 443 kts | 285° |
| 2026-05-03 20:37 | 26.68966 | 50.53054 | 37847 ft | 443 kts | 285° |
| 2026-05-03 20:37 | 26.70889 | 50.46495 | 37850 ft | 442 kts | 284° |
| 2026-05-03 20:38 | 26.72574 | 50.39897 | 37848 ft | 441 kts | 283° |
| 2026-05-03 20:38 | 26.74233 | 50.33292 | 37847 ft | 441 kts | 283° |
| 2026-05-03 20:39 | 26.75907 | 50.26735 | 37851 ft | 441 kts | 283° |
| 2026-05-03 20:39 | 26.77818 | 50.20190 | 37840 ft | 442 kts | 286° |
| 2026-05-03 20:40 | 26.79811 | 50.13696 | 37837 ft | 442 kts | 285° |
| 2026-05-03 20:40 | 26.81765 | 50.07181 | 37836 ft | 442 kts | 285° |
| 2026-05-03 20:41 | 26.83713 | 50.00628 | 37837 ft | 442 kts | 285° |
| 2026-05-03 20:41 | 26.85652 | 49.94087 | 37843 ft | 442 kts | 285° |
| 2026-05-03 20:42 | 26.87574 | 49.87594 | 37838 ft | 442 kts | 285° |
| 2026-05-03 20:42 | 26.89507 | 49.81053 | 37842 ft | 442 kts | 285° |
| 2026-05-03 20:43 | 26.91438 | 49.74508 | 37845 ft | 442 kts | 285° |
| 2026-05-03 20:43 | 26.93360 | 49.67979 | 37842 ft | 442 kts | 285° |
| 2026-05-03 20:44 | 26.95272 | 49.61469 | 37839 ft | 442 kts | 285° |
| 2026-05-03 20:44 | 26.97188 | 49.54935 | 37846 ft | 441 kts | 285° |
| 2026-05-03 20:45 | 26.99101 | 49.48397 | 37849 ft | 441 kts | 284° |
| 2026-05-03 20:45 | 27.01134 | 49.41905 | 37843 ft | 443 kts | 289° |
| 2026-05-03 20:46 | 27.03948 | 49.35759 | 37846 ft | 447 kts | 295° |
| 2026-05-03 20:46 | 27.07015 | 49.29695 | 37847 ft | 447 kts | 294° |
| 2026-05-03 20:47 | 27.10061 | 49.23618 | 37850 ft | 447 kts | 294° |
| 2026-05-03 20:47 | 27.13006 | 49.17748 | 37855 ft | 447 kts | 294° |
| 2026-05-03 20:48 | 27.15948 | 49.11881 | 37856 ft | 446 kts | 294° |
| 2026-05-03 20:48 | 27.18975 | 49.05837 | 37859 ft | 446 kts | 294° |
| 2026-05-03 20:49 | 27.22015 | 48.99757 | 37858 ft | 446 kts | 294° |
| 2026-05-03 20:49 | 27.25046 | 48.93682 | 37860 ft | 445 kts | 294° |
| 2026-05-03 20:50 | 27.28074 | 48.87605 | 37859 ft | 445 kts | 294° |
| 2026-05-03 20:50 | 27.31088 | 48.81546 | 37860 ft | 445 kts | 294° |
| 2026-05-03 20:51 | 27.34085 | 48.75516 | 37858 ft | 445 kts | 294° |
| 2026-05-03 20:51 | 27.37094 | 48.69451 | 37865 ft | 444 kts | 294° |
| 2026-05-03 20:52 | 27.40107 | 48.63369 | 37860 ft | 444 kts | 294° |
| 2026-05-03 20:52 | 27.43111 | 48.57298 | 37873 ft | 444 kts | 294° |
| 2026-05-03 20:53 | 27.46112 | 48.51224 | 37872 ft | 444 kts | 294° |
| 2026-05-03 20:53 | 27.49093 | 48.45182 | 37873 ft | 444 kts | 294° |
| 2026-05-03 20:54 | 27.52086 | 48.39105 | 37875 ft | 444 kts | 293° |
| 2026-05-03 20:54 | 27.56568 | 48.29992 | 37875 ft | 443 kts | 293° |
| 2026-05-03 20:55 | 27.59533 | 48.23958 | 37882 ft | 443 kts | 293° |
| 2026-05-03 20:55 | 27.62521 | 48.17879 | 37878 ft | 443 kts | 293° |
| 2026-05-03 20:56 | 27.65297 | 48.12224 | 37882 ft | 442 kts | 293° |
| 2026-05-03 20:56 | 27.68252 | 48.06193 | 37898 ft | 442 kts | 293° |
| 2026-05-03 20:57 | 27.71221 | 48.00120 | 37898 ft | 442 kts | 293° |
| 2026-05-03 20:57 | 27.74147 | 47.94113 | 37902 ft | 442 kts | 293° |
| 2026-05-03 20:58 | 27.77082 | 47.88081 | 37889 ft | 441 kts | 292° |
| 2026-05-03 20:58 | 27.80038 | 47.81995 | 37893 ft | 441 kts | 292° |
| 2026-05-03 20:59 | 27.82968 | 47.75953 | 37895 ft | 440 kts | 292° |
| 2026-05-03 20:59 | 27.85401 | 47.69658 | 37896 ft | 434 kts | 284° |
| 2026-05-03 21:00 | 27.86711 | 47.65352 | 37901 ft | 434 kts | 284° |
| 2026-05-03 21:00 | 27.89382 | 47.56785 | 37899 ft | 434 kts | 284° |
| 2026-05-03 21:01 | 27.91367 | 47.50390 | 37900 ft | 434 kts | 284° |
| 2026-05-03 21:01 | 27.93354 | 47.43964 | 37907 ft | 434 kts | 284° |
| 2026-05-03 21:02 | 27.95343 | 47.37516 | 37908 ft | 434 kts | 284° |
| 2026-05-03 21:02 | 27.97324 | 47.31084 | 37910 ft | 433 kts | 284° |
| 2026-05-03 21:03 | 27.99292 | 47.24684 | 37911 ft | 433 kts | 284° |
| 2026-05-03 21:03 | 28.01239 | 47.18336 | 37912 ft | 433 kts | 284° |
| 2026-05-03 21:04 | 28.03210 | 47.11902 | 37914 ft | 433 kts | 283° |
| 2026-05-03 21:04 | 28.04846 | 47.06551 | 37914 ft | 433 kts | 283° |
| 2026-05-03 21:05 | 28.06950 | 46.99654 | 37920 ft | 433 kts | 283° |
| 2026-05-03 21:05 | 28.08892 | 46.93278 | 37917 ft | 433 kts | 283° |
| 2026-05-03 21:06 | 28.10881 | 46.86752 | 37910 ft | 433 kts | 284° |
| 2026-05-03 21:06 | 28.13013 | 46.80358 | 37914 ft | 434 kts | 285° |
| 2026-05-03 21:07 | 28.15160 | 46.74022 | 37913 ft | 434 kts | 285° |
| 2026-05-03 21:07 | 28.17295 | 46.67629 | 37910 ft | 434 kts | 285° |
| 2026-05-03 21:08 | 28.19420 | 46.61231 | 37912 ft | 433 kts | 284° |
| 2026-05-03 21:08 | 28.21540 | 46.54834 | 37917 ft | 433 kts | 284° |
| 2026-05-03 21:09 | 28.23651 | 46.48456 | 37918 ft | 434 kts | 284° |
| 2026-05-03 21:09 | 28.25766 | 46.42053 | 37922 ft | 434 kts | 284° |
| 2026-05-03 21:10 | 28.27865 | 46.35688 | 37919 ft | 434 kts | 284° |
| 2026-05-03 21:10 | 28.29974 | 46.29281 | 37920 ft | 434 kts | 284° |
| 2026-05-03 21:11 | 28.32078 | 46.22878 | 37917 ft | 433 kts | 284° |
| 2026-05-03 21:11 | 28.34183 | 46.16459 | 37914 ft | 433 kts | 284° |
| 2026-05-03 21:12 | 28.36277 | 46.10092 | 37909 ft | 434 kts | 285° |
| 2026-05-03 21:12 | 28.38624 | 46.03805 | 37909 ft | 436 kts | 287° |
| 2026-05-03 21:13 | 28.41027 | 45.97487 | 37913 ft | 436 kts | 287° |
| 2026-05-03 21:13 | 28.43391 | 45.91153 | 37913 ft | 436 kts | 286° |
| 2026-05-03 21:14 | 28.45734 | 45.84837 | 37923 ft | 436 kts | 286° |
| 2026-05-03 21:14 | 28.48085 | 45.78485 | 37929 ft | 436 kts | 286° |
| 2026-05-03 21:15 | 28.50434 | 45.72129 | 37933 ft | 436 kts | 286° |
| 2026-05-03 21:15 | 28.52780 | 45.65768 | 37927 ft | 436 kts | 286° |
| 2026-05-03 21:16 | 28.55119 | 45.59419 | 37924 ft | 435 kts | 286° |
| 2026-05-03 21:16 | 28.57439 | 45.53109 | 37930 ft | 435 kts | 286° |
| 2026-05-03 21:17 | 28.59380 | 45.47822 | 37933 ft | 435 kts | 286° |
| 2026-05-03 21:17 | 28.61930 | 45.40864 | 37929 ft | 434 kts | 286° |
| 2026-05-03 21:18 | 28.64236 | 45.34562 | 37928 ft | 434 kts | 285° |
| 2026-05-03 21:18 | 28.66552 | 45.28223 | 37928 ft | 434 kts | 285° |
| 2026-05-03 21:19 | 28.68863 | 45.21883 | 37927 ft | 433 kts | 285° |
| 2026-05-03 21:19 | 28.71168 | 45.15550 | 37929 ft | 433 kts | 285° |
| 2026-05-03 21:20 | 28.73454 | 45.09258 | 37922 ft | 432 kts | 285° |
| 2026-05-03 21:20 | 28.75747 | 45.02939 | 37918 ft | 432 kts | 285° |
| 2026-05-03 21:21 | 28.78038 | 44.96612 | 37913 ft | 431 kts | 285° |
| 2026-05-03 21:21 | 28.80323 | 44.90290 | 37910 ft | 431 kts | 285° |
| 2026-05-03 21:22 | 28.82521 | 44.84199 | 37907 ft | 431 kts | 285° |
| 2026-05-03 21:22 | 28.84680 | 44.77854 | 37906 ft | 427 kts | 281° |
| 2026-05-03 21:23 | 28.86098 | 44.71337 | 37901 ft | 420 kts | 274° |
| 2026-05-03 21:23 | 28.86689 | 44.65868 | 37903 ft | 416 kts | 269° |
| 2026-05-03 21:24 | 28.87299 | 44.58235 | 37907 ft | 416 kts | 270° |
| 2026-05-03 21:24 | 28.87834 | 44.51657 | 37907 ft | 416 kts | 269° |
| 2026-05-03 21:25 | 28.88269 | 44.46187 | 37905 ft | 416 kts | 269° |
| 2026-05-03 21:25 | 28.88855 | 44.38746 | 37916 ft | 416 kts | 269° |
| 2026-05-03 21:26 | 28.89282 | 44.33281 | 37907 ft | 416 kts | 269° |
| 2026-05-03 21:26 | 28.89793 | 44.26714 | 37915 ft | 416 kts | 269° |
| 2026-05-03 21:27 | 28.90300 | 44.20144 | 37912 ft | 416 kts | 269° |
| 2026-05-03 21:27 | 28.90884 | 44.12542 | 37907 ft | 416 kts | 269° |
| 2026-05-03 21:28 | 28.91303 | 44.07038 | 37926 ft | 416 kts | 269° |
| 2026-05-03 21:28 | 28.91798 | 44.00510 | 37914 ft | 416 kts | 269° |
| 2026-05-03 21:29 | 28.92293 | 43.93948 | 37927 ft | 415 kts | 269° |
| 2026-05-03 21:29 | 28.92782 | 43.87412 | 37935 ft | 415 kts | 269° |
| 2026-05-03 21:30 | 28.93271 | 43.80833 | 37924 ft | 414 kts | 269° |
| 2026-05-03 21:30 | 28.93754 | 43.74281 | 37936 ft | 414 kts | 269° |
| 2026-05-03 21:31 | 28.94231 | 43.67786 | 37930 ft | 413 kts | 269° |
| 2026-05-03 21:31 | 28.94706 | 43.61259 | 37932 ft | 413 kts | 269° |
| 2026-05-03 21:32 | 28.95180 | 43.54722 | 37934 ft | 412 kts | 269° |
| 2026-05-03 21:32 | 28.95649 | 43.48190 | 37933 ft | 412 kts | 268° |
| 2026-05-03 21:33 | 28.96113 | 43.41683 | 37937 ft | 411 kts | 268° |
| 2026-05-03 21:33 | 28.96571 | 43.35218 | 37937 ft | 411 kts | 268° |
| 2026-05-03 21:34 | 28.97029 | 43.28719 | 37938 ft | 410 kts | 268° |
| 2026-05-03 21:34 | 28.97483 | 43.22226 | 37938 ft | 410 kts | 268° |
| 2026-05-03 21:35 | 28.97933 | 43.15741 | 37942 ft | 410 kts | 268° |
| 2026-05-03 21:35 | 28.98375 | 43.09325 | 37936 ft | 409 kts | 268° |
| 2026-05-03 21:36 | 28.98819 | 43.02840 | 37938 ft | 409 kts | 268° |
| 2026-05-03 21:36 | 28.99260 | 42.96365 | 37937 ft | 409 kts | 268° |
| 2026-05-03 21:37 | 28.99697 | 42.89890 | 37944 ft | 409 kts | 268° |
| 2026-05-03 21:37 | 29.00128 | 42.83450 | 37947 ft | 409 kts | 268° |
| 2026-05-03 21:38 | 29.00558 | 42.76983 | 37955 ft | 409 kts | 268° |
| 2026-05-03 21:38 | 29.00985 | 42.70511 | 37955 ft | 408 kts | 268° |
| 2026-05-03 21:39 | 29.01410 | 42.64046 | 37964 ft | 408 kts | 268° |
| 2026-05-03 21:39 | 29.01827 | 42.57633 | 37969 ft | 408 kts | 268° |
| 2026-05-03 21:40 | 29.02244 | 42.51168 | 37973 ft | 407 kts | 268° |
| 2026-05-03 21:40 | 29.02658 | 42.44717 | 37973 ft | 407 kts | 268° |
| 2026-05-03 21:41 | 29.03067 | 42.38276 | 37970 ft | 406 kts | 268° |
| 2026-05-03 21:41 | 29.03472 | 42.31875 | 37974 ft | 406 kts | 268° |
| 2026-05-03 21:42 | 29.03875 | 42.25447 | 37979 ft | 406 kts | 268° |
| 2026-05-03 21:42 | 29.04275 | 42.19013 | 37972 ft | 405 kts | 268° |
| 2026-05-03 21:43 | 29.04672 | 42.12596 | 37975 ft | 405 kts | 267° |
| 2026-05-03 21:43 | 29.05061 | 42.06223 | 37971 ft | 404 kts | 267° |
| 2026-05-03 21:44 | 29.05449 | 41.99818 | 37974 ft | 404 kts | 267° |
| 2026-05-03 21:44 | 29.05836 | 41.93411 | 37983 ft | 404 kts | 267° |
| 2026-05-03 21:45 | 29.06217 | 41.87005 | 37983 ft | 404 kts | 267° |
| 2026-05-03 21:45 | 29.06590 | 41.80657 | 37980 ft | 403 kts | 267° |
| 2026-05-03 21:46 | 29.06964 | 41.74267 | 37985 ft | 403 kts | 267° |
| 2026-05-03 21:46 | 29.07332 | 41.67902 | 37984 ft | 402 kts | 267° |
| 2026-05-03 21:47 | 29.07699 | 41.61508 | 37979 ft | 402 kts | 267° |
| 2026-05-03 21:47 | 29.08064 | 41.55123 | 37983 ft | 402 kts | 267° |
| 2026-05-03 21:48 | 29.08422 | 41.48795 | 37987 ft | 402 kts | 267° |
| 2026-05-03 21:48 | 29.08779 | 41.42420 | 37990 ft | 402 kts | 267° |
| 2026-05-03 21:49 | 29.09136 | 41.36044 | 37991 ft | 401 kts | 267° |
| 2026-05-03 21:49 | 29.09489 | 41.29724 | 37992 ft | 401 kts | 267° |
| 2026-05-03 21:50 | 29.09840 | 41.23360 | 38001 ft | 401 kts | 267° |
| 2026-05-03 21:50 | 29.10186 | 41.16999 | 38008 ft | 401 kts | 267° |
| 2026-05-03 21:51 | 29.10528 | 41.10674 | 37998 ft | 401 kts | 267° |
| 2026-05-03 21:51 | 29.10870 | 41.04308 | 38007 ft | 401 kts | 267° |
| 2026-05-03 21:52 | 29.11206 | 40.97995 | 38019 ft | 400 kts | 267° |
| 2026-05-03 21:52 | 29.11543 | 40.91641 | 38017 ft | 400 kts | 267° |
| 2026-05-03 21:53 | 29.11874 | 40.85295 | 38007 ft | 400 kts | 266° |
| 2026-05-03 21:53 | 29.12204 | 40.78945 | 38012 ft | 399 kts | 266° |
| 2026-05-03 21:54 | 29.12525 | 40.72652 | 38015 ft | 399 kts | 266° |
| 2026-05-03 21:54 | 29.12847 | 40.66325 | 38016 ft | 399 kts | 266° |
| 2026-05-03 21:55 | 29.13165 | 40.59996 | 38012 ft | 399 kts | 266° |
| 2026-05-03 21:55 | 29.13150 | 40.53705 | 38017 ft | 394 kts | 262° |
| 2026-05-03 21:56 | 29.12937 | 40.47479 | 38015 ft | 394 kts | 262° |
| 2026-05-03 21:56 | 29.12750 | 40.41639 | 38013 ft | 395 kts | 262° |
| 2026-05-03 21:57 | 29.12544 | 40.35417 | 38014 ft | 395 kts | 262° |
| 2026-05-03 21:57 | 29.12332 | 40.29134 | 38012 ft | 395 kts | 262° |
| 2026-05-03 21:58 | 29.12117 | 40.22862 | 38014 ft | 395 kts | 262° |
| 2026-05-03 21:58 | 29.11899 | 40.16585 | 38015 ft | 395 kts | 262° |
| 2026-05-03 21:59 | 29.11681 | 40.10387 | 38016 ft | 395 kts | 262° |
| 2026-05-03 21:59 | 29.11457 | 40.04118 | 38019 ft | 396 kts | 262° |
| 2026-05-03 22:00 | 29.11230 | 39.97815 | 38027 ft | 396 kts | 262° |
| 2026-05-03 22:00 | 29.11002 | 39.91539 | 38025 ft | 395 kts | 262° |
| 2026-05-03 22:01 | 29.10918 | 39.85269 | 38017 ft | 398 kts | 264° |
| 2026-05-03 22:01 | 29.11000 | 39.78961 | 38017 ft | 398 kts | 264° |
| 2026-05-03 22:02 | 29.11045 | 39.72638 | 38018 ft | 397 kts | 264° |
| 2026-05-03 22:02 | 29.11066 | 39.66328 | 38019 ft | 397 kts | 264° |
| 2026-05-03 22:03 | 29.11082 | 39.60052 | 38025 ft | 397 kts | 264° |
| 2026-05-03 22:03 | 29.11096 | 39.53739 | 38024 ft | 397 kts | 264° |
| 2026-05-03 22:04 | 29.11107 | 39.47415 | 38029 ft | 397 kts | 264° |
| 2026-05-03 22:04 | 29.11116 | 39.41096 | 38032 ft | 397 kts | 264° |
| 2026-05-03 22:05 | 29.11121 | 39.34778 | 38025 ft | 398 kts | 264° |
| 2026-05-03 22:05 | 29.11124 | 39.28492 | 38035 ft | 398 kts | 264° |
| 2026-05-03 22:06 | 29.11123 | 39.22171 | 38034 ft | 398 kts | 264° |
| 2026-05-03 22:06 | 29.11120 | 39.15887 | 38035 ft | 398 kts | 264° |
| 2026-05-03 22:07 | 29.11113 | 39.09558 | 38031 ft | 398 kts | 264° |
| 2026-05-03 22:07 | 29.11104 | 39.03279 | 38026 ft | 398 kts | 264° |
| 2026-05-03 22:08 | 29.11091 | 38.96961 | 38028 ft | 397 kts | 264° |
| 2026-05-03 22:08 | 29.11076 | 38.90641 | 38028 ft | 397 kts | 264° |
| 2026-05-03 22:09 | 29.11050 | 38.84319 | 38027 ft | 398 kts | 263° |
| 2026-05-03 22:10 | 29.11007 | 38.74872 | 38029 ft | 398 kts | 264° |
| 2026-05-03 22:10 | 29.10975 | 38.68555 | 38033 ft | 398 kts | 264° |
| 2026-05-03 22:11 | 29.10940 | 38.62235 | 38027 ft | 397 kts | 264° |
| 2026-05-03 22:11 | 29.10902 | 38.55915 | 38025 ft | 397 kts | 264° |
| 2026-05-03 22:12 | 29.10862 | 38.49593 | 38022 ft | 397 kts | 264° |
| 2026-05-03 22:12 | 29.10818 | 38.43315 | 38021 ft | 398 kts | 263° |
| 2026-05-03 22:13 | 29.10771 | 38.36990 | 38025 ft | 397 kts | 264° |
| 2026-05-03 22:13 | 29.10721 | 38.30672 | 38021 ft | 398 kts | 263° |
| 2026-05-03 22:14 | 29.10667 | 38.24351 | 38021 ft | 398 kts | 263° |
| 2026-05-03 22:14 | 29.10610 | 38.18067 | 38017 ft | 398 kts | 263° |
| 2026-05-03 22:15 | 29.10550 | 38.11763 | 38001 ft | 398 kts | 263° |
| 2026-05-03 22:15 | 29.10486 | 38.05439 | 38015 ft | 398 kts | 263° |
| 2026-05-03 22:16 | 29.10420 | 37.99109 | 38017 ft | 398 kts | 263° |
| 2026-05-03 22:16 | 29.10351 | 37.92837 | 38010 ft | 398 kts | 263° |
| 2026-05-03 22:17 | 29.10278 | 37.86515 | 38009 ft | 398 kts | 263° |
| 2026-05-03 22:17 | 29.10203 | 37.80189 | 38005 ft | 398 kts | 263° |
| 2026-05-03 22:18 | 29.10125 | 37.73901 | 38002 ft | 398 kts | 263° |
| 2026-05-03 22:18 | 29.10045 | 37.67581 | 38005 ft | 397 kts | 263° |
| 2026-05-03 22:19 | 29.09962 | 37.61272 | 38013 ft | 397 kts | 263° |
| 2026-05-03 22:19 | 29.09874 | 37.54945 | 38008 ft | 398 kts | 263° |
| 2026-05-03 22:20 | 29.09788 | 37.48632 | 38013 ft | 398 kts | 264° |
| 2026-05-03 22:20 | 29.09745 | 37.42345 | 38007 ft | 398 kts | 264° |
| 2026-05-03 22:21 | 29.09703 | 37.36030 | 38011 ft | 398 kts | 264° |
| 2026-05-03 22:21 | 29.09653 | 37.29701 | 38010 ft | 398 kts | 264° |
| 2026-05-03 22:22 | 29.09598 | 37.23394 | 38020 ft | 397 kts | 264° |
| 2026-05-03 22:22 | 29.09539 | 37.17111 | 38012 ft | 397 kts | 264° |
| 2026-05-03 22:23 | 29.09479 | 37.10811 | 38010 ft | 397 kts | 264° |
| 2026-05-03 22:23 | 29.09415 | 37.04494 | 38014 ft | 397 kts | 264° |
| 2026-05-03 22:24 | 29.09350 | 36.98186 | 38009 ft | 397 kts | 263° |
| 2026-05-03 22:24 | 29.09283 | 36.91921 | 38014 ft | 396 kts | 264° |
| 2026-05-03 22:25 | 29.09212 | 36.85624 | 38017 ft | 396 kts | 263° |
| 2026-05-03 22:25 | 29.09137 | 36.79328 | 38016 ft | 396 kts | 263° |
| 2026-05-03 22:26 | 29.09059 | 36.73032 | 38016 ft | 396 kts | 264° |
| 2026-05-03 22:26 | 29.08980 | 36.66774 | 38017 ft | 396 kts | 263° |
| 2026-05-03 22:27 | 29.08903 | 36.60948 | 38019 ft | 396 kts | 263° |
| 2026-05-03 22:27 | 29.08814 | 36.54622 | 38020 ft | 396 kts | 263° |
| 2026-05-03 22:28 | 29.08726 | 36.48442 | 38018 ft | 395 kts | 263° |
| 2026-05-03 22:28 | 29.08585 | 36.42145 | 38017 ft | 395 kts | 263° |
| 2026-05-03 22:29 | 29.08402 | 36.35879 | 38018 ft | 394 kts | 263° |
| 2026-05-03 22:29 | 29.08228 | 36.29667 | 38017 ft | 394 kts | 263° |
| 2026-05-03 22:30 | 29.08053 | 36.23410 | 37987 ft | 396 kts | 263° |
| 2026-05-03 22:30 | 29.07874 | 36.17120 | 38001 ft | 396 kts | 263° |
| 2026-05-03 22:31 | 29.07695 | 36.10878 | 38010 ft | 396 kts | 263° |
| 2026-05-03 22:31 | 29.07511 | 36.04577 | 38001 ft | 397 kts | 263° |
| 2026-05-03 22:32 | 29.07325 | 35.98320 | 38011 ft | 397 kts | 263° |
| 2026-05-03 22:32 | 29.07135 | 35.92007 | 38019 ft | 397 kts | 263° |
| 2026-05-03 22:33 | 29.06941 | 35.85683 | 38013 ft | 398 kts | 263° |
| 2026-05-03 22:33 | 29.06746 | 35.79400 | 38012 ft | 399 kts | 263° |
| 2026-05-03 22:34 | 29.06546 | 35.73056 | 38020 ft | 399 kts | 263° |
| 2026-05-03 22:34 | 29.06343 | 35.66722 | 38030 ft | 400 kts | 263° |
| 2026-05-03 22:35 | 29.06136 | 35.60370 | 38031 ft | 400 kts | 263° |
| 2026-05-03 22:35 | 29.05927 | 35.54022 | 38043 ft | 399 kts | 263° |
| 2026-05-03 22:36 | 29.05715 | 35.47719 | 38051 ft | 400 kts | 263° |
| 2026-05-03 22:36 | 29.05501 | 35.41379 | 38057 ft | 400 kts | 263° |
| 2026-05-03 22:37 | 29.05284 | 35.35035 | 38054 ft | 399 kts | 263° |
| 2026-05-03 22:37 | 29.05064 | 35.28710 | 38055 ft | 399 kts | 263° |
| 2026-05-03 22:38 | 29.04844 | 35.22436 | 38045 ft | 397 kts | 263° |
| 2026-05-03 22:38 | 29.04616 | 35.16133 | 38044 ft | 397 kts | 263° |
| 2026-05-03 22:39 | 29.04386 | 35.09897 | 38040 ft | 396 kts | 263° |
| 2026-05-03 22:39 | 29.04157 | 35.03615 | 38030 ft | 396 kts | 263° |
| 2026-05-03 22:40 | 29.03926 | 34.97372 | 38012 ft | 396 kts | 263° |
| 2026-05-03 22:40 | 29.03688 | 34.91089 | 38008 ft | 395 kts | 263° |
| 2026-05-03 22:41 | 29.03450 | 34.84817 | 38001 ft | 396 kts | 263° |
| 2026-05-03 22:41 | 29.03313 | 34.78532 | 37997 ft | 396 kts | 265° |
| 2026-05-03 22:42 | 29.03313 | 34.72274 | 37998 ft | 398 kts | 268° |
| 2026-05-03 22:42 | 29.03969 | 34.65933 | 38005 ft | 404 kts | 274° |
| 2026-05-03 22:43 | 29.05370 | 34.59680 | 38004 ft | 410 kts | 281° |
| 2026-05-03 22:43 | 29.07215 | 34.53471 | 38011 ft | 413 kts | 281° |
| 2026-05-03 22:44 | 29.09042 | 34.47227 | 38026 ft | 415 kts | 281° |
| 2026-05-03 22:44 | 29.10854 | 34.41031 | 38030 ft | 416 kts | 281° |
| 2026-05-03 22:45 | 29.12691 | 34.34735 | 38049 ft | 417 kts | 281° |
| 2026-05-03 22:45 | 29.14527 | 34.28437 | 38045 ft | 418 kts | 281° |
| 2026-05-03 22:46 | 29.16366 | 34.22114 | 38069 ft | 419 kts | 281° |
| 2026-05-03 22:46 | 29.18169 | 34.15906 | 38084 ft | 420 kts | 281° |
| 2026-05-03 22:47 | 29.20011 | 34.09555 | 38087 ft | 421 kts | 281° |
| 2026-05-03 22:47 | 29.21850 | 34.03197 | 38092 ft | 420 kts | 281° |
| 2026-05-03 22:48 | 29.23673 | 33.96880 | 38085 ft | 420 kts | 281° |
| 2026-05-03 22:48 | 29.25500 | 33.90538 | 38086 ft | 419 kts | 281° |
| 2026-05-03 22:49 | 29.27274 | 33.84374 | 38102 ft | 419 kts | 281° |
| 2026-05-03 22:49 | 29.29090 | 33.78050 | 38087 ft | 418 kts | 281° |
| 2026-05-03 22:50 | 29.30903 | 33.71727 | 38082 ft | 417 kts | 281° |
| 2026-05-03 22:50 | 29.32698 | 33.65453 | 38083 ft | 417 kts | 281° |
| 2026-05-03 22:51 | 29.34501 | 33.59135 | 38080 ft | 417 kts | 281° |
| 2026-05-03 22:51 | 29.36296 | 33.52835 | 38078 ft | 416 kts | 281° |
| 2026-05-03 22:52 | 29.38082 | 33.46551 | 38079 ft | 416 kts | 281° |
| 2026-05-03 22:52 | 29.39872 | 33.40245 | 38072 ft | 415 kts | 281° |
| 2026-05-03 22:53 | 29.41644 | 33.33990 | 38073 ft | 415 kts | 281° |
| 2026-05-03 22:53 | 29.43422 | 33.27699 | 38076 ft | 414 kts | 281° |
| 2026-05-03 22:54 | 29.45194 | 33.21414 | 38074 ft | 414 kts | 281° |
| 2026-05-03 22:54 | 29.46962 | 33.15129 | 38075 ft | 414 kts | 281° |
| 2026-05-03 22:55 | 29.48729 | 33.08840 | 38079 ft | 414 kts | 281° |
| 2026-05-03 22:55 | 29.50472 | 33.02638 | 37775 ft | 406 kts | 281° |
| 2026-05-03 22:55 | 29.51337 | 32.99557 | 37508 ft | 405 kts | 281° |
| 2026-05-03 22:56 | 29.52192 | 32.96492 | 37250 ft | 405 kts | 281° |
| 2026-05-03 22:56 | 29.53056 | 32.93393 | 36990 ft | 406 kts | 281° |
| 2026-05-03 22:56 | 29.53919 | 32.90296 | 36738 ft | 407 kts | 281° |
| 2026-05-03 22:56 | 29.54780 | 32.87206 | 36489 ft | 407 kts | 281° |
| 2026-05-03 22:57 | 29.55645 | 32.84106 | 36082 ft | 407 kts | 281° |
| 2026-05-03 22:57 | 29.56509 | 32.81005 | 35207 ft | 410 kts | 281° |
| 2026-05-03 22:57 | 29.57370 | 32.77899 | 34140 ft | 417 kts | 281° |
| 2026-05-03 22:57 | 29.58252 | 32.74729 | 33129 ft | 414 kts | 282° |
| 2026-05-03 22:58 | 29.59121 | 32.71621 | 32456 ft | 404 kts | 281° |
| 2026-05-03 22:58 | 29.59962 | 32.68594 | 32077 ft | 390 kts | 280° |
| 2026-05-03 22:58 | 29.60647 | 32.65612 | 31889 ft | 386 kts | 278° |
| 2026-05-03 22:58 | 29.61314 | 32.62607 | 31445 ft | 390 kts | 278° |
| 2026-05-03 22:59 | 29.62002 | 32.59575 | 30669 ft | 394 kts | 279° |
| 2026-05-03 22:59 | 29.62695 | 32.56557 | 30155 ft | 387 kts | 279° |
| 2026-05-03 22:59 | 29.63373 | 32.53609 | 29676 ft | 377 kts | 278° |
| 2026-05-03 22:59 | 29.64022 | 32.50765 | 29202 ft | 368 kts | 278° |
| 2026-05-03 23:00 | 29.64670 | 32.47879 | 28688 ft | 381 kts | 278° |
| 2026-05-03 23:00 | 29.65336 | 32.44892 | 28062 ft | 384 kts | 279° |
| 2026-05-03 23:00 | 29.65997 | 32.41976 | 27581 ft | 371 kts | 279° |
| 2026-05-03 23:00 | 29.66642 | 32.39150 | 27082 ft | 359 kts | 279° |
| 2026-05-03 23:01 | 29.67266 | 32.36400 | 26563 ft | 353 kts | 279° |
| 2026-05-03 23:01 | 29.67873 | 32.33702 | 26053 ft | 347 kts | 279° |
| 2026-05-03 23:01 | 29.68473 | 32.31030 | 25568 ft | 341 kts | 279° |
| 2026-05-03 23:01 | 29.69052 | 32.28446 | 25104 ft | 336 kts | 279° |
| 2026-05-03 23:02 | 29.69629 | 32.25873 | 24640 ft | 331 kts | 279° |
| 2026-05-03 23:02 | 29.70199 | 32.23328 | 24193 ft | 326 kts | 279° |
| 2026-05-03 23:02 | 29.70761 | 32.20813 | 23721 ft | 322 kts | 279° |
| 2026-05-03 23:02 | 29.71316 | 32.18333 | 23234 ft | 318 kts | 280° |
| 2026-05-03 23:03 | 29.71866 | 32.15876 | 22717 ft | 314 kts | 280° |
| 2026-05-03 23:03 | 29.72404 | 32.13461 | 22184 ft | 312 kts | 280° |
| 2026-05-03 23:03 | 29.72943 | 32.11039 | 21702 ft | 313 kts | 280° |
| 2026-05-03 23:03 | 29.73485 | 32.08590 | 21245 ft | 318 kts | 280° |
| 2026-05-03 23:04 | 29.74029 | 32.06147 | 20700 ft | 319 kts | 280° |
| 2026-05-03 23:04 | 29.74580 | 32.03675 | 20186 ft | 318 kts | 280° |
| 2026-05-03 23:04 | 29.75130 | 32.01210 | 19699 ft | 318 kts | 280° |
| 2026-05-03 23:04 | 29.75672 | 31.98779 | 19251 ft | 312 kts | 281° |
| 2026-05-03 23:05 | 29.76211 | 31.96350 | 18716 ft | 312 kts | 281° |
| 2026-05-03 23:05 | 29.76744 | 31.93949 | 18124 ft | 311 kts | 281° |
| 2026-05-03 23:05 | 29.77277 | 31.91534 | 17627 ft | 315 kts | 281° |
| 2026-05-03 23:05 | 29.77856 | 31.89072 | 17237 ft | 322 kts | 284° |
| 2026-05-03 23:06 | 29.78696 | 31.86712 | 16805 ft | 324 kts | 291° |
| 2026-05-03 23:06 | 29.79827 | 31.84468 | 16338 ft | 323 kts | 298° |
| 2026-05-03 23:06 | 29.81164 | 31.82394 | 15813 ft | 321 kts | 301° |
| 2026-05-03 23:06 | 29.82487 | 31.80367 | 15392 ft | 314 kts | 301° |
| 2026-05-03 23:07 | 29.83775 | 31.78365 | 14959 ft | 309 kts | 300° |
| 2026-05-03 23:07 | 29.85034 | 31.76396 | 14521 ft | 304 kts | 300° |
| 2026-05-03 23:07 | 29.86280 | 31.74446 | 14083 ft | 299 kts | 300° |
| 2026-05-03 23:07 | 29.87512 | 31.72519 | 13656 ft | 295 kts | 301° |
| 2026-05-03 23:08 | 29.88704 | 31.70655 | 13238 ft | 290 kts | 301° |
| 2026-05-03 23:08 | 29.89899 | 31.68786 | 12718 ft | 289 kts | 301° |
| 2026-05-03 23:08 | 29.91083 | 31.66933 | 12297 ft | 287 kts | 301° |
| 2026-05-03 23:08 | 29.92280 | 31.65060 | 11689 ft | 293 kts | 301° |
| 2026-05-03 23:09 | 29.93505 | 31.63161 | 11309 ft | 299 kts | 302° |
| 2026-05-03 23:09 | 29.94774 | 31.61194 | 10872 ft | 313 kts | 302° |
| 2026-05-03 23:09 | 29.96087 | 31.59166 | 10344 ft | 312 kts | 302° |
| 2026-05-03 23:09 | 29.97352 | 31.57231 | 10194 ft | 293 kts | 302° |
| 2026-05-03 23:10 | 29.98521 | 31.55439 | 10021 ft | 273 kts | 302° |
| 2026-05-03 23:10 | 29.99613 | 31.53754 | 9912 ft | 255 kts | 302° |
| 2026-05-03 23:10 | 30.00677 | 31.52094 | 9792 ft | 260 kts | 301° |
| 2026-05-03 23:10 | 30.01753 | 31.50414 | 9659 ft | 260 kts | 302° |
| 2026-05-03 23:11 | 30.02830 | 31.48739 | 9467 ft | 259 kts | 302° |
| 2026-05-03 23:11 | 30.03741 | 31.47328 | 9253 ft | 256 kts | 302° |
| 2026-05-03 23:11 | 30.04791 | 31.45697 | 8975 ft | 247 kts | 302° |
| 2026-05-03 23:11 | 30.05786 | 31.44157 | 8707 ft | 239 kts | 302° |
| 2026-05-03 23:12 | 30.06743 | 31.42670 | 8449 ft | 234 kts | 302° |
| 2026-05-03 23:12 | 30.07699 | 31.41178 | 8199 ft | 234 kts | 302° |
| 2026-05-03 23:12 | 30.08438 | 31.39535 | 7922 ft | 231 kts | 282° |
| 2026-05-03 23:12 | 30.08486 | 31.37716 | 7669 ft | 229 kts | 260° |
| 2026-05-03 23:13 | 30.07892 | 31.36037 | 7420 ft | 233 kts | 242° |
| 2026-05-03 23:13 | 30.07056 | 31.34458 | 7272 ft | 223 kts | 243° |
| 2026-05-03 23:13 | 30.06292 | 31.32917 | 6852 ft | 220 kts | 243° |
| 2026-05-03 23:13 | 30.05546 | 31.31370 | 6596 ft | 220 kts | 244° |
| 2026-05-03 23:14 | 30.04837 | 31.29895 | 6356 ft | 221 kts | 243° |
| 2026-05-03 23:14 | 30.04078 | 31.28324 | 6132 ft | 219 kts | 243° |
| 2026-05-03 23:14 | 30.03355 | 31.26837 | 5974 ft | 207 kts | 243° |
| 2026-05-03 23:14 | 30.02692 | 31.25475 | 5360 ft | 191 kts | 243° |
| 2026-05-03 23:15 | 30.02038 | 31.24113 | 4147 ft | 200 kts | 244° |
| 2026-05-03 23:15 | 30.01181 | 31.22806 | 3319 ft | 215 kts | 221° |
| 2026-05-03 23:15 | 29.99758 | 31.22210 | 2939 ft | 226 kts | 186° |
| 2026-05-03 23:15 | 29.98234 | 31.22629 | 2762 ft | 232 kts | 150° |
| 2026-05-03 23:16 | 29.97234 | 31.24040 | 2693 ft | 230 kts | 107° |
| 2026-05-03 23:16 | 29.97264 | 31.25821 | 2701 ft | 223 kts | 65° |
| 2026-05-03 23:16 | 29.98223 | 31.27157 | 2713 ft | 217 kts | 36° |
| 2026-05-03 23:16 | 29.99353 | 31.28267 | 2668 ft | 217 kts | 39° |
| 2026-05-03 23:17 | 30.00410 | 31.29510 | 2671 ft | 218 kts | 44° |
| 2026-05-03 23:17 | 30.01386 | 31.30788 | 2604 ft | 206 kts | 46° |
| 2026-05-03 23:17 | 30.02259 | 31.31960 | 2451 ft | 179 kts | 45° |
| 2026-05-03 23:17 | 30.03019 | 31.32969 | 2290 ft | 155 kts | 44° |
| 2026-05-03 23:18 | 30.03682 | 31.33849 | 2078 ft | 139 kts | 44° |
| 2026-05-03 23:18 | 30.04315 | 31.34680 | 1999 ft | 138 kts | 43° |
| 2026-05-03 23:18 | 30.04944 | 31.35523 | 1924 ft | 139 kts | 44° |
| 2026-05-03 23:18 | 30.05573 | 31.36362 | 1737 ft | 140 kts | 44° |
| 2026-05-03 23:19 | 30.06205 | 31.37206 | 1542 ft | 139 kts | 45° |
| 2026-05-03 23:19 | 30.06832 | 31.38041 | 1365 ft | 139 kts | 45° |
| 2026-05-03 23:19 | 30.07458 | 31.38874 | 1167 ft | 138 kts | 45° |
| 2026-05-03 23:19 | 30.08089 | 31.39700 | 992 ft | 137 kts | 45° |
| 2026-05-03 23:20 | 30.08702 | 31.40547 | 809 ft | 138 kts | 46° |
| 2026-05-03 23:20 | 30.09330 | 31.41385 | 638 ft | 137 kts | 46° |
| 2026-05-03 23:20 | 30.09951 | 31.42223 | 466 ft | 138 kts | 45° |
| 2026-05-03 23:20 | 30.10496 | 31.42910 | 465 ft | 90 kts | 47° |
| 2026-05-03 23:21 | 30.10741 | 31.43247 | 467 ft | 20 kts | 50° |
| 2026-05-03 23:21 | 30.10793 | 31.43318 | 468 ft | 12 kts | 50° |
| 2026-05-03 23:21 | 30.10855 | 31.43404 | 466 ft | 16 kts | 47° |
| 2026-05-03 23:21 | 30.10951 | 31.43490 | 466 ft | 19 kts | 30° |
| 2026-05-03 23:22 | 30.11223 | 31.43563 | 456 ft | 19 kts | 315° |
| 2026-05-03 23:22 | 30.11244 | 31.43448 | 451 ft | 16 kts | 296° |
| 2026-05-03 23:22 | 30.11326 | 31.43340 | 427 ft | 20 kts | 318° |
| 2026-05-03 23:23 | 30.11443 | 31.43223 | 422 ft | 25 kts | 319° |
| 2026-05-03 23:23 | 30.11581 | 31.43087 | 415 ft | 28 kts | 320° |
| 2026-05-03 23:23 | 30.11733 | 31.42939 | 404 ft | 30 kts | 320° |
| 2026-05-03 23:23 | 30.11897 | 31.42779 | 394 ft | 32 kts | 319° |
| 2026-05-03 23:24 | 30.12067 | 31.42610 | 386 ft | 32 kts | 319° |
| 2026-05-03 23:24 | 30.12196 | 31.42453 | 377 ft | 20 kts | 275° |
| 2026-05-03 23:24 | 30.12147 | 31.42340 | 377 ft | 17 kts | 237° |
| 2026-05-03 23:24 | 30.12070 | 31.42226 | 375 ft | 19 kts | 230° |
| 2026-05-03 23:25 | 30.11980 | 31.42105 | 376 ft | 21 kts | 229° |
| 2026-05-03 23:25 | 30.11887 | 31.41981 | 375 ft | 22 kts | 229° |
| 2026-05-03 23:25 | 30.11783 | 31.41842 | 376 ft | 23 kts | 229° |
| 2026-05-03 23:25 | 30.11676 | 31.41700 | 375 ft | 24 kts | 229° |
| 2026-05-03 23:26 | 30.11567 | 31.41554 | 375 ft | 24 kts | 229° |
| 2026-05-03 23:26 | 30.11455 | 31.41404 | 378 ft | 25 kts | 229° |
| 2026-05-03 23:26 | 30.11342 | 31.41253 | 378 ft | 25 kts | 229° |
| 2026-05-03 23:26 | 30.11227 | 31.41101 | 379 ft | 25 kts | 229° |
| 2026-05-03 23:27 | 30.11115 | 31.40950 | 378 ft | 23 kts | 229° |
| 2026-05-03 23:27 | 30.11082 | 31.40814 | 374 ft | 20 kts | 280° |
| 2026-05-03 23:27 | 30.11037 | 31.40690 | 373 ft | 18 kts | 233° |
| 2026-05-03 23:27 | 30.10954 | 31.40576 | 372 ft | 20 kts | 229° |
| 2026-05-03 23:28 | 30.10930 | 31.40436 | 369 ft | 20 kts | 275° |
| 2026-05-03 23:28 | 30.10957 | 31.40298 | 364 ft | 16 kts | 285° |
| 2026-05-03 23:28 | 30.10983 | 31.40197 | 360 ft | 10 kts | 290° |
| 2026-05-03 23:28 | 30.11032 | 31.40147 | 355 ft | 8 kts | 354° |
| 2026-05-03 23:29 | 30.11069 | 31.40154 | 356 ft | 1 kts | 4° |
| 2026-05-03 23:29 | 30.11078 | 31.40156 | 356 ft | 1 kts | 14° |
| 2026-05-03 23:29 | 30.11084 | 31.40158 | 352 ft | 0 kts | 14° |